createdAt,value
2023-03-11T00:02:19.367Z,35.95
2023-03-11T00:07:42.955Z,23.65
2023-03-11T00:13:06.276Z,31.15
2023-03-11T00:18:32.078Z,28.65
2023-03-11T00:24:03.677Z,28.15
2023-03-11T00:29:30.285Z,28.65
2023-03-11T00:35:00.236Z,32.45
2023-03-11T00:40:29.926Z,28.55
2023-03-11T00:45:53.095Z,25.65
2023-03-11T00:51:22.174Z,24.80
2023-03-11T00:56:45.786Z,21.15
2023-03-11T01:02:13.798Z,26.55
2023-03-11T01:07:43.869Z,22.83
2023-03-11T01:13:12.652Z,23.23
2023-03-11T01:18:34.895Z,20.25
2023-03-11T01:24:05.428Z,22.75
2023-03-11T01:29:34.074Z,21.35
2023-03-11T01:35:05.280Z,18.40
2023-03-11T01:40:37.353Z,19.20
2023-03-11T01:46:11.643Z,19.98
2023-03-11T01:51:36.907Z,22.08
2023-03-11T01:57:06.248Z,40.08
2023-03-11T02:02:32.240Z,25.38
2023-03-11T02:08:01.245Z,27.48
2023-03-11T02:13:36.225Z,22.33
2023-03-11T02:19:09.404Z,19.65
2023-03-11T02:24:42.172Z,20.40
2023-03-11T02:30:14.616Z,20.48
2023-03-11T02:35:44.713Z,21.83
2023-03-11T02:41:13.839Z,18.60
2023-03-11T02:46:46.533Z,23.08
2023-03-11T02:52:15.636Z,31.95
2023-03-11T02:57:43.726Z,48.50
2023-03-11T03:03:14.226Z,38.97
2023-03-11T03:08:43.601Z,27.58
2023-03-11T03:14:08.090Z,28.38
2023-03-11T03:19:31.519Z,31.58
2023-03-11T03:24:59.611Z,37.28
2023-03-11T03:30:28.441Z,42.03
2023-03-11T03:35:59.200Z,39.97
2023-03-11T03:41:27.025Z,35.35
2023-03-11T03:46:55.805Z,37.88
2023-03-11T03:52:20.391Z,44.83
2023-03-11T03:57:43.275Z,47.53
2023-03-11T04:03:12.660Z,49.08
2023-03-11T04:08:44.977Z,43.30
2023-03-11T04:14:14.076Z,45.97
2023-03-11T04:19:46.868Z,51.65
2023-03-11T04:25:17.339Z,63.70
2023-03-11T04:30:47.166Z,61.35
2023-03-11T04:36:11.518Z,58.45
2023-03-11T04:41:41.968Z,63.55
2023-03-11T04:47:12.930Z,53.17
2023-03-11T04:52:41.398Z,56.15
2023-03-11T04:58:12.387Z,46.83
2023-03-11T05:03:35.665Z,58.28
2023-03-11T05:09:05.157Z,54.47
2023-03-11T05:14:32.739Z,37.38
2023-03-11T05:19:55.348Z,21.13
2023-03-11T05:25:26.380Z,21.23
2023-03-11T05:30:50.867Z,26.35
2023-03-11T05:36:14.545Z,21.65
2023-03-11T05:41:40.143Z,20.98
2023-03-11T05:47:04.359Z,22.67
2023-03-11T05:52:27.336Z,22.55
2023-03-11T05:57:51.916Z,16.65
2023-03-11T06:03:16.195Z,16.85
2023-03-11T06:08:39.573Z,18.08
2023-03-11T06:14:02.575Z,16.02
2023-03-11T06:19:26.337Z,23.95
2023-03-11T06:24:55.096Z,18.35
2023-03-11T06:30:26.542Z,18.75
2023-03-11T06:36:04.062Z,22.80
2023-03-11T06:41:34.290Z,14.40
2023-03-11T06:46:58.546Z,16.63
2023-03-11T06:52:22.763Z,16.50
2023-03-11T06:57:45.802Z,19.13
2023-03-11T07:03:10.048Z,21.10
2023-03-11T07:08:40.091Z,19.63
2023-03-11T07:14:10.224Z,21.98
2023-03-11T07:19:42.816Z,28.50
2023-03-11T07:25:07.837Z,16.67
2023-03-11T07:35:58.540Z,15.85
2023-03-11T07:41:22.772Z,15.48
2023-03-11T07:46:46.735Z,18.23
2023-03-11T07:52:15.739Z,16.20
2023-03-11T07:57:43.824Z,13.52
2023-03-11T08:03:12.098Z,13.65
2023-03-11T08:08:38.322Z,15.38
2023-03-11T08:14:08.292Z,18.95
2023-03-11T08:19:31.707Z,16.85
2023-03-11T08:25:00.130Z,9.88
2023-03-11T08:30:30.363Z,10.75
2023-03-11T08:35:54.283Z,12.85
2023-03-11T08:41:21.569Z,11.30
2023-03-11T08:46:50.389Z,14.45
2023-03-11T08:52:18.766Z,13.15
2023-03-11T08:57:43.390Z,13.48
2023-03-11T09:03:13.456Z,16.53
2023-03-11T09:08:36.895Z,15.65
2023-03-11T09:13:58.715Z,16.00
2023-03-11T09:19:28.250Z,18.20
2023-03-11T09:24:57.962Z,18.17
2023-03-11T09:30:24.877Z,16.95
2023-03-11T09:35:50.008Z,17.45
2023-03-11T09:41:27.261Z,24.85
2023-03-11T09:47:05.856Z,21.98
2023-03-11T09:52:37.516Z,22.63
2023-03-11T09:58:10.570Z,26.73
2023-03-11T10:09:04.158Z,29.17
2023-03-11T10:14:39.891Z,24.95
2023-03-11T10:20:06.383Z,20.80
2023-03-11T10:25:43.586Z,24.13
2023-03-11T10:31:18.784Z,21.77
2023-03-11T10:36:48.673Z,24.35
2023-03-11T10:42:21.536Z,26.95
2023-03-11T10:47:47.741Z,33.35
2023-03-11T10:53:11.784Z,36.88
2023-03-11T10:58:36.991Z,33.83
2023-03-11T11:04:24.603Z,28.80
2023-03-11T11:10:11.093Z,45.53
2023-03-11T11:15:42.335Z,28.48
2023-03-11T11:21:14.894Z,25.90
2023-03-11T11:26:43.349Z,24.58
2023-03-11T11:32:18.106Z,19.70
2023-03-11T11:37:46.996Z,15.60
2023-03-11T11:43:15.171Z,17.45
2023-03-11T11:48:45.422Z,15.75
2023-03-11T11:54:17.456Z,19.73
2023-03-11T11:59:40.514Z,11.82
2023-03-11T12:05:08.684Z,25.73
2023-03-11T12:10:42.154Z,20.73
2023-03-11T12:23:08.845Z,27.77
2023-03-11T12:28:40.900Z,18.42
2023-03-11T12:34:05.771Z,16.55
2023-03-11T12:39:35.487Z,15.77
2023-03-11T12:45:35.103Z,17.42
2023-03-11T12:51:00.791Z,16.50
2023-03-11T12:56:31.744Z,19.08
2023-03-11T13:02:05.647Z,20.15
2023-03-11T13:07:44.456Z,23.88
2023-03-11T13:13:25.047Z,32.08
2023-03-11T13:18:53.875Z,23.10
2023-03-11T13:24:40.354Z,27.88
2023-03-11T13:30:16.288Z,35.83
2023-03-11T13:35:45.621Z,33.60
2023-03-11T13:41:15.412Z,29.20
2023-03-11T13:52:10.375Z,45.42
2023-03-11T13:57:39.455Z,33.17
2023-03-11T14:03:06.195Z,29.20
2023-03-11T14:08:31.737Z,28.45
2023-03-11T14:13:55.415Z,35.92
2023-03-11T14:19:19.269Z,32.22
2023-03-11T14:24:48.816Z,34.65
2023-03-11T14:30:19.258Z,27.33
2023-03-11T14:35:42.647Z,37.50
2023-03-11T14:41:07.491Z,30.27
2023-03-11T14:46:31.005Z,24.95
2023-03-11T14:52:01.476Z,22.23
2023-03-11T14:57:35.958Z,21.65
2023-03-11T15:03:09.740Z,23.27
2023-03-11T15:08:39.034Z,26.13
2023-03-11T15:14:18.702Z,23.27
2023-03-11T15:19:47.089Z,15.90
2023-03-11T15:25:17.119Z,28.90
2023-03-11T15:30:47.331Z,29.52
2023-03-11T15:36:32.310Z,21.25
2023-03-11T15:42:03.615Z,18.80
2023-03-11T15:47:28.095Z,21.88
2023-03-11T15:52:51.594Z,24.33
2023-03-11T15:58:16.096Z,22.33
2023-03-11T16:03:40.799Z,23.98
2023-03-11T16:09:05.112Z,28.30
2023-03-11T16:14:34.013Z,20.42
2023-03-11T16:19:58.275Z,23.17
2023-03-11T16:25:28.975Z,24.40
2023-03-11T16:30:52.101Z,31.88
2023-03-11T16:36:16.746Z,24.15
2023-03-11T16:41:45.962Z,30.08
2023-03-11T16:47:09.191Z,27.27
2023-03-11T16:52:35.622Z,31.60
2023-03-11T16:58:03.184Z,36.45
2023-03-11T17:03:27.569Z,33.90
2023-03-11T17:08:56.030Z,33.67
2023-03-11T17:14:21.014Z,25.45
2023-03-11T17:19:44.580Z,26.45
2023-03-11T17:25:12.317Z,25.42
2023-03-11T17:30:37.354Z,23.58
2023-03-11T17:36:07.230Z,24.15
2023-03-11T17:41:37.426Z,35.60
2023-03-11T17:47:06.473Z,33.85
2023-03-11T17:52:32.727Z,17.85
2023-03-11T17:57:59.588Z,23.80
2023-03-11T18:03:22.824Z,17.08
2023-03-11T18:08:46.486Z,23.40
2023-03-11T18:14:10.693Z,19.80
2023-03-11T18:19:35.583Z,19.80
2023-03-11T18:25:09.792Z,23.02
2023-03-11T18:30:37.469Z,23.25
2023-03-11T18:36:15.696Z,25.98
2023-03-11T18:41:44.457Z,24.50
2023-03-11T18:47:14.565Z,26.38
2023-03-11T18:52:42.758Z,21.02
2023-03-11T18:58:10.874Z,29.48
2023-03-11T19:03:40.710Z,23.77
2023-03-11T19:09:11.293Z,25.27
2023-03-11T19:14:39.096Z,20.67
2023-03-11T19:20:08.707Z,20.67
2023-03-11T19:25:36.398Z,13.90
2023-03-11T19:31:05.596Z,17.30
2023-03-11T19:36:30.186Z,17.00
2023-03-11T19:41:59.161Z,18.48
2023-03-11T19:47:28.287Z,15.30
2023-03-11T19:52:58.168Z,17.38
2023-03-11T19:58:30.212Z,16.73
2023-03-11T20:03:59.072Z,22.17
2023-03-11T20:09:29.537Z,22.90
2023-03-11T20:14:58.604Z,16.88
2023-03-11T20:20:28.327Z,14.77
2023-03-11T20:25:53.033Z,22.63
2023-03-11T20:31:21.149Z,12.55
2023-03-11T20:36:50.959Z,20.00
2023-03-11T20:42:15.086Z,16.38
2023-03-11T20:47:39.641Z,18.83
2023-03-11T20:53:08.026Z,23.98
2023-03-11T20:58:39.398Z,24.80
2023-03-11T21:04:03.644Z,20.42
2023-03-11T21:09:32.275Z,24.95
2023-03-11T21:14:58.920Z,21.85
2023-03-11T21:20:22.045Z,27.33
2023-03-11T21:25:58.075Z,24.13
2023-03-11T21:31:29.590Z,21.45
2023-03-11T21:36:56.523Z,17.33
2023-03-11T21:42:20.887Z,23.02
2023-03-11T21:47:50.715Z,17.70
2023-03-11T21:53:19.456Z,23.38
2023-03-11T21:58:49.989Z,18.30
2023-03-11T22:04:14.535Z,17.27
2023-03-11T22:09:37.165Z,19.58
2023-03-11T22:15:06.679Z,26.15
2023-03-11T22:20:36.658Z,31.90
2023-03-11T22:26:05.161Z,28.80
2023-03-11T22:31:34.258Z,32.45
2023-03-11T22:37:04.207Z,30.80
2023-03-11T22:42:33.260Z,32.50
2023-03-11T22:48:02.098Z,29.73
2023-03-11T22:53:26.265Z,27.98
2023-03-11T22:58:55.165Z,27.40
2023-03-11T23:04:18.145Z,34.08
2023-03-11T23:09:48.423Z,26.03
2023-03-11T23:15:13.453Z,27.75
2023-03-11T23:20:37.105Z,27.88
2023-03-11T23:26:01.777Z,20.65
2023-03-11T23:31:26.100Z,25.50
2023-03-11T23:36:49.049Z,26.25
2023-03-11T23:42:25.066Z,26.70
2023-03-11T23:47:48.726Z,31.38
2023-03-11T23:53:11.578Z,25.10
2023-03-11T23:58:36.020Z,25.77
